createdAt,value
2023-03-15T00:00:35.951Z,0.40
2023-03-15T00:03:04.684Z,0.20
2023-03-15T00:05:32.032Z,0.20
2023-03-15T00:07:59.408Z,0.20
2023-03-15T00:10:26.307Z,0.20
2023-03-15T00:12:53.665Z,0.20
2023-03-15T00:15:20.435Z,0.20
2023-03-15T00:17:47.372Z,0.10
2023-03-15T00:20:14.983Z,0.20
2023-03-15T00:22:42.315Z,0.20
2023-03-15T00:25:09.798Z,0.28
2023-03-15T00:27:36.555Z,0.10
2023-03-15T00:30:04.104Z,0.25
2023-03-15T00:32:31.850Z,0.20
2023-03-15T00:34:58.695Z,0.10
2023-03-15T00:37:25.746Z,0.20
2023-03-15T00:39:55.553Z,0.38
2023-03-15T00:42:27.619Z,0.10
2023-03-15T00:44:55.804Z,0.20
2023-03-15T00:47:23.216Z,0.30
2023-03-15T00:49:50.835Z,0.30
2023-03-15T00:52:19.026Z,0.30
2023-03-15T00:54:53.096Z,0.20
2023-03-15T00:57:20.224Z,0.30
2023-03-15T00:59:47.353Z,0.20
2023-03-15T01:02:14.267Z,0.20
2023-03-15T01:04:41.032Z,0.40
2023-03-15T01:07:07.966Z,0.40
2023-03-15T01:09:35.241Z,0.50
2023-03-15T01:12:02.016Z,0.40
2023-03-15T01:14:28.970Z,0.50
2023-03-15T01:16:55.860Z,0.43
2023-03-15T01:19:22.607Z,0.60
2023-03-15T01:21:49.446Z,0.43
2023-03-15T01:24:16.314Z,0.50
2023-03-15T01:26:43.125Z,0.50
2023-03-15T01:29:09.983Z,0.70
2023-03-15T01:31:36.771Z,0.60
2023-03-15T01:34:03.605Z,0.40
2023-03-15T01:36:30.707Z,0.60
2023-03-15T01:38:58.084Z,0.40
2023-03-15T01:41:25.894Z,0.45
2023-03-15T01:43:53.141Z,0.60
2023-03-15T01:46:19.922Z,0.55
2023-03-15T01:48:57.910Z,0.40
2023-03-15T01:51:45.847Z,0.55
2023-03-15T01:54:22.111Z,0.70
2023-03-15T01:59:27.347Z,0.40
2023-03-15T02:01:57.002Z,0.40
2023-03-15T02:04:34.392Z,0.52
2023-03-15T02:07:03.320Z,0.45
2023-03-15T02:09:41.704Z,0.50
2023-03-15T02:12:09.841Z,0.65
2023-03-15T02:14:36.866Z,0.60
2023-03-15T02:17:03.724Z,0.68
2023-03-15T02:20:18.986Z,0.70
2023-03-15T02:23:04.236Z,0.60
2023-03-15T02:26:14.819Z,0.57
2023-03-15T02:28:42.455Z,0.50
2023-03-15T02:31:10.678Z,0.60
2023-03-15T02:34:07.404Z,0.95
2023-03-15T02:36:35.928Z,0.80
2023-03-15T02:39:14.892Z,0.80
2023-03-15T02:41:44.834Z,0.90
2023-03-15T02:44:28.027Z,0.70
2023-03-15T02:47:01.676Z,0.80
2023-03-15T02:49:34.868Z,0.80
2023-03-15T02:52:02.894Z,1.17
2023-03-15T02:54:29.769Z,0.90
2023-03-15T02:56:56.514Z,0.95
2023-03-15T02:59:23.279Z,0.98
2023-03-15T03:01:51.174Z,1.25
2023-03-15T03:04:18.116Z,1.27
2023-03-15T03:06:44.933Z,1.13
2023-03-15T03:09:11.874Z,0.80
2023-03-15T03:11:38.711Z,0.85
2023-03-15T03:14:05.614Z,1.00
2023-03-15T03:16:33.682Z,1.00
2023-03-15T03:19:01.407Z,0.95
2023-03-15T03:21:28.770Z,1.25
2023-03-15T03:23:55.544Z,1.10
2023-03-15T03:26:27.784Z,1.45
2023-03-15T03:28:56.201Z,1.17
2023-03-15T03:31:25.555Z,1.20
2023-03-15T03:33:52.616Z,1.08
2023-03-15T03:36:19.569Z,0.90
2023-03-15T03:38:47.067Z,1.10
2023-03-15T03:41:15.105Z,1.10
2023-03-15T03:43:42.022Z,1.02
2023-03-15T03:46:08.936Z,0.98
2023-03-15T03:48:35.966Z,1.10
2023-03-15T03:51:02.822Z,0.82
2023-03-15T03:53:29.698Z,1.17
2023-03-15T03:55:56.436Z,0.82
2023-03-15T03:58:23.195Z,1.00
2023-03-15T04:00:54.219Z,1.20
2023-03-15T04:03:27.074Z,1.33
2023-03-15T04:05:54.986Z,1.10
2023-03-15T04:08:22.797Z,1.48
2023-03-15T04:10:53.741Z,0.85
2023-03-15T04:14:07.630Z,0.90
2023-03-15T04:16:34.561Z,1.58
2023-03-15T04:19:01.403Z,1.05
2023-03-15T04:21:31.863Z,1.00
2023-03-15T04:24:02.271Z,1.08
2023-03-15T04:26:29.646Z,1.10
2023-03-15T04:28:58.599Z,0.93
2023-03-15T04:31:28.933Z,0.93
2023-03-15T04:33:56.656Z,1.42
2023-03-15T04:36:23.771Z,1.00
2023-03-15T04:38:50.716Z,0.90
2023-03-15T04:41:18.796Z,0.90
2023-03-15T04:43:45.702Z,1.10
2023-03-15T04:46:12.508Z,1.10
2023-03-15T04:48:39.308Z,1.00
2023-03-15T04:51:06.195Z,1.15
2023-03-15T04:53:33.046Z,1.23
2023-03-15T04:55:59.826Z,0.95
2023-03-15T04:58:26.600Z,1.48
2023-03-15T05:00:54.072Z,1.00
2023-03-15T05:03:20.996Z,1.08
2023-03-15T05:05:47.856Z,1.15
2023-03-15T05:08:14.798Z,1.13
2023-03-15T05:10:41.568Z,1.27
2023-03-15T05:13:08.322Z,0.90
2023-03-15T05:15:35.088Z,1.10
2023-03-15T05:18:02.032Z,1.33
2023-03-15T05:20:29.126Z,1.02
2023-03-15T05:22:56.140Z,0.93
2023-03-15T05:25:24.415Z,0.75
2023-03-15T05:27:51.215Z,0.90
2023-03-15T05:30:18.143Z,1.10
2023-03-15T05:32:45.099Z,0.90
2023-03-15T05:35:12.826Z,0.65
2023-03-15T05:37:40.249Z,1.20
2023-03-15T05:40:08.229Z,0.90
2023-03-15T05:42:35.488Z,0.88
2023-03-15T05:45:02.272Z,1.08
2023-03-15T05:47:29.538Z,0.77
2023-03-15T05:49:56.651Z,0.88
2023-03-15T05:52:23.945Z,0.95
2023-03-15T05:54:50.809Z,0.85
2023-03-15T05:57:17.731Z,1.15
2023-03-15T05:59:44.523Z,1.30
2023-03-15T06:02:11.690Z,1.48
2023-03-15T06:04:38.477Z,0.85
2023-03-15T06:07:05.415Z,0.90
2023-03-15T06:09:32.402Z,0.90
2023-03-15T06:11:59.247Z,1.08
2023-03-15T06:14:27.549Z,0.80
2023-03-15T06:16:54.513Z,1.20
2023-03-15T06:19:22.588Z,0.98
2023-03-15T06:21:49.717Z,1.10
2023-03-15T06:24:16.616Z,1.00
2023-03-15T06:26:43.811Z,1.10
2023-03-15T06:29:10.600Z,1.02
2023-03-15T06:31:37.357Z,0.90
2023-03-15T06:34:04.143Z,1.20
2023-03-15T06:36:31.780Z,1.15
2023-03-15T06:38:58.623Z,1.10
2023-03-15T06:41:26.782Z,1.33
2023-03-15T06:43:53.634Z,1.05
2023-03-15T06:46:20.667Z,1.20
2023-03-15T06:48:47.449Z,1.40
2023-03-15T06:51:14.214Z,1.33
2023-03-15T06:53:41.617Z,1.40
2023-03-15T06:56:08.490Z,1.33
2023-03-15T06:58:35.224Z,1.17
2023-03-15T07:01:02.073Z,1.63
2023-03-15T07:03:29.070Z,1.55
2023-03-15T07:05:55.873Z,1.30
2023-03-15T07:08:24.168Z,1.70
2023-03-15T07:10:51.767Z,1.48
2023-03-15T07:13:19.361Z,1.55
2023-03-15T07:15:47.776Z,1.75
2023-03-15T07:18:14.603Z,1.58
2023-03-15T07:20:41.901Z,1.40
2023-03-15T07:23:08.728Z,1.50
2023-03-15T07:25:48.259Z,1.23
2023-03-15T07:28:19.107Z,1.67
2023-03-15T07:31:03.629Z,1.65
2023-03-15T07:33:32.709Z,1.30
2023-03-15T07:35:59.781Z,1.40
2023-03-15T07:38:31.050Z,1.50
2023-03-15T07:40:58.663Z,1.35
2023-03-15T07:43:25.410Z,1.45
2023-03-15T07:45:52.218Z,1.50
2023-03-15T07:48:19.077Z,1.40
2023-03-15T07:50:46.141Z,1.83
2023-03-15T07:53:13.050Z,1.80
2023-03-15T07:55:39.828Z,1.38
2023-03-15T07:58:06.629Z,2.05
2023-03-15T08:00:33.474Z,1.58
2023-03-15T08:03:00.550Z,1.42
2023-03-15T08:05:29.122Z,1.85
2023-03-15T08:07:56.686Z,1.70
2023-03-15T08:10:24.104Z,1.60
2023-03-15T08:12:51.007Z,1.40
2023-03-15T08:15:18.407Z,1.83
2023-03-15T08:17:48.014Z,1.67
2023-03-15T08:20:17.722Z,1.50
2023-03-15T08:22:51.455Z,2.05
2023-03-15T08:25:22.360Z,1.67
2023-03-15T08:27:50.166Z,1.60
2023-03-15T08:30:18.958Z,1.50
2023-03-15T08:32:47.104Z,1.85
2023-03-15T08:35:16.780Z,2.88
2023-03-15T08:37:47.703Z,1.55
2023-03-15T08:40:25.636Z,1.90
2023-03-15T08:42:56.407Z,1.80
2023-03-15T08:45:24.831Z,1.70
2023-03-15T08:47:55.986Z,1.60
2023-03-15T08:50:25.351Z,1.80
2023-03-15T08:52:52.142Z,1.80
2023-03-15T08:55:19.076Z,1.25
2023-03-15T08:57:46.111Z,2.17
2023-03-15T09:00:25.689Z,1.77
2023-03-15T09:02:52.513Z,1.85
2023-03-15T09:05:21.124Z,1.70
2023-03-15T09:07:49.016Z,1.60
2023-03-15T09:10:17.142Z,1.60
2023-03-15T09:12:48.712Z,1.60
2023-03-15T09:15:15.874Z,2.08
2023-03-15T09:17:42.943Z,1.83
2023-03-15T09:20:14.800Z,1.65
2023-03-15T09:22:42.517Z,1.60
2023-03-15T09:25:10.039Z,1.38
2023-03-15T09:27:37.376Z,1.50
2023-03-15T09:30:04.617Z,1.70
2023-03-15T09:32:36.317Z,1.83
2023-03-15T09:35:10.016Z,1.40
2023-03-15T09:37:36.837Z,1.50
2023-03-15T09:40:04.717Z,1.58
2023-03-15T09:42:38.942Z,1.70
2023-03-15T09:45:14.366Z,1.63
2023-03-15T09:47:43.977Z,1.83
2023-03-15T09:50:22.197Z,1.70
2023-03-15T09:53:02.429Z,1.75
2023-03-15T09:55:29.896Z,1.40
2023-03-15T09:58:02.396Z,1.60
2023-03-15T10:00:48.806Z,1.40
2023-03-15T10:03:33.254Z,1.55
2023-03-15T10:06:07.398Z,1.50
2023-03-15T10:08:34.390Z,1.27
2023-03-15T10:11:21.045Z,1.67
2023-03-15T10:16:28.837Z,1.23
2023-03-15T10:19:26.806Z,1.20
2023-03-15T10:22:30.868Z,1.27
2023-03-15T10:25:26.070Z,1.30
2023-03-15T10:27:58.453Z,1.20
2023-03-15T10:30:28.102Z,1.15
2023-03-15T10:33:15.971Z,1.70
2023-03-15T10:35:43.008Z,1.30
2023-03-15T10:38:17.662Z,1.60
2023-03-15T10:40:48.822Z,1.42
2023-03-15T10:43:32.093Z,1.13
2023-03-15T10:46:13.363Z,1.17
2023-03-15T10:49:12.055Z,1.20
2023-03-15T10:51:43.244Z,1.50
2023-03-15T10:54:16.011Z,1.73
2023-03-15T10:56:48.601Z,1.73
2023-03-15T10:59:21.338Z,1.52
2023-03-15T11:01:52.971Z,1.20
2023-03-15T11:04:23.171Z,1.10
2023-03-15T11:06:57.312Z,1.15
2023-03-15T11:09:26.527Z,1.00
2023-03-15T11:12:03.992Z,1.10
2023-03-15T11:14:46.338Z,1.17
2023-03-15T11:17:20.199Z,1.33
2023-03-15T11:19:56.924Z,0.90
2023-03-15T11:22:24.267Z,1.30
2023-03-15T11:24:54.532Z,0.77
2023-03-15T11:27:23.518Z,0.98
2023-03-15T11:29:58.320Z,1.30
2023-03-15T11:32:29.049Z,1.00
2023-03-15T11:35:07.768Z,1.13
2023-03-15T11:37:46.426Z,1.20
2023-03-15T11:40:33.085Z,0.90
2023-03-15T11:43:12.500Z,0.98
2023-03-15T11:45:51.225Z,1.10
2023-03-15T11:48:44.051Z,1.00
2023-03-15T11:51:12.632Z,1.10
2023-03-15T11:53:54.029Z,1.45
2023-03-15T11:56:26.931Z,1.10
2023-03-15T11:59:23.970Z,0.90
2023-03-15T12:01:56.647Z,1.27
2023-03-15T12:04:24.606Z,0.98
2023-03-15T12:06:54.137Z,1.13
2023-03-15T12:09:33.161Z,1.17
2023-03-15T12:12:02.684Z,1.10
2023-03-15T12:14:35.124Z,1.10
2023-03-15T12:17:23.908Z,1.17
2023-03-15T12:20:12.093Z,1.05
2023-03-15T12:22:48.406Z,0.90
2023-03-15T12:27:55.638Z,1.10
2023-03-15T12:30:41.072Z,1.17
2023-03-15T12:33:20.305Z,1.00
2023-03-15T12:35:48.813Z,1.52
2023-03-15T12:38:18.727Z,1.10
2023-03-15T12:40:57.517Z,1.30
2023-03-15T12:43:44.814Z,1.33
2023-03-15T12:46:43.827Z,1.20
2023-03-15T12:49:13.412Z,1.27
2023-03-15T12:52:01.968Z,1.25
2023-03-15T12:54:42.812Z,1.00
2023-03-15T12:57:12.565Z,1.00
2023-03-15T12:59:51.444Z,0.90
2023-03-15T13:02:44.028Z,1.15
2023-03-15T13:05:17.442Z,1.45
2023-03-15T13:08:16.453Z,1.17
2023-03-15T13:10:53.111Z,1.00
2023-03-15T13:13:36.161Z,1.05
2023-03-15T13:16:27.871Z,1.70
2023-03-15T13:19:18.764Z,1.05
2023-03-15T13:22:07.354Z,1.55
2023-03-15T13:24:57.984Z,1.25
2023-03-15T13:27:51.858Z,1.10
2023-03-15T13:30:36.494Z,1.15
2023-03-15T13:33:31.464Z,0.93
2023-03-15T13:36:01.069Z,1.30
2023-03-15T13:38:41.398Z,1.10
2023-03-15T13:41:26.254Z,0.82
2023-03-15T13:43:56.652Z,1.15
2023-03-15T13:46:26.788Z,0.85
2023-03-15T13:48:55.027Z,0.90
2023-03-15T13:51:30.226Z,1.00
2023-03-15T13:54:29.773Z,1.00
2023-03-15T13:57:10.913Z,1.00
2023-03-15T14:00:12.028Z,1.10
2023-03-15T14:02:59.633Z,1.33
2023-03-15T14:05:49.725Z,1.20
2023-03-15T14:08:27.650Z,1.00
2023-03-15T14:11:10.030Z,1.00
2023-03-15T14:13:59.269Z,1.30
2023-03-15T14:17:00.997Z,1.17
2023-03-15T14:19:32.753Z,0.73
2023-03-15T14:22:04.097Z,0.80
2023-03-15T14:24:35.269Z,0.85
2023-03-15T14:27:06.872Z,1.02
2023-03-15T14:29:36.866Z,0.90
2023-03-15T14:32:09.252Z,0.70
2023-03-15T14:34:45.415Z,1.00
2023-03-15T14:37:31.389Z,0.85
2023-03-15T14:40:37.497Z,0.85
2023-03-15T14:43:06.382Z,1.08
2023-03-15T14:45:37.120Z,0.80
2023-03-15T14:48:24.408Z,0.80
2023-03-15T14:50:51.294Z,0.77
2023-03-15T14:53:21.187Z,0.77
2023-03-15T14:55:47.979Z,0.70
2023-03-15T14:58:17.409Z,0.68
2023-03-15T15:00:46.888Z,0.88
2023-03-15T15:03:19.393Z,0.88
2023-03-15T15:05:46.845Z,0.88
2023-03-15T15:08:16.329Z,0.60
2023-03-15T15:10:46.234Z,0.68
2023-03-15T15:13:20.536Z,0.50
2023-03-15T15:15:55.653Z,0.55
2023-03-15T15:18:25.294Z,0.80
2023-03-15T15:20:55.386Z,0.65
2023-03-15T15:23:25.656Z,0.43
2023-03-15T15:26:04.388Z,0.70
2023-03-15T15:28:36.391Z,0.75
2023-03-15T15:31:05.613Z,0.60
2023-03-15T15:33:32.457Z,0.80
2023-03-15T15:35:59.330Z,0.90
2023-03-15T15:38:38.170Z,0.68
2023-03-15T15:41:05.597Z,1.10
2023-03-15T15:43:33.642Z,0.70
2023-03-15T15:46:01.802Z,0.80
2023-03-15T15:48:28.979Z,0.60
2023-03-15T15:50:55.792Z,0.73
2023-03-15T15:53:23.280Z,0.60
2023-03-15T15:55:50.064Z,0.68
2023-03-15T15:58:17.556Z,0.70
2023-03-15T16:00:44.447Z,0.80
2023-03-15T16:03:18.493Z,0.90
2023-03-15T16:05:45.345Z,0.80
2023-03-15T16:08:24.713Z,0.80
2023-03-15T16:10:51.762Z,0.40
2023-03-15T16:13:18.554Z,0.77
2023-03-15T16:15:45.353Z,0.80
2023-03-15T16:18:13.064Z,0.60
2023-03-15T16:20:41.240Z,0.88
2023-03-15T16:23:20.478Z,0.60
2023-03-15T16:25:49.801Z,0.68
2023-03-15T16:28:16.873Z,0.80
2023-03-15T16:30:46.555Z,0.70
2023-03-15T16:33:16.291Z,0.70
2023-03-15T16:35:44.130Z,0.70
2023-03-15T16:38:24.586Z,0.80
2023-03-15T16:40:53.189Z,0.82
2023-03-15T16:43:20.693Z,0.80
2023-03-15T16:45:47.594Z,0.70
2023-03-15T16:48:14.501Z,0.75
2023-03-15T16:50:43.198Z,0.88
2023-03-15T16:53:12.579Z,0.90
2023-03-15T16:55:39.768Z,0.70
2023-03-15T16:58:19.771Z,0.75
2023-03-15T17:00:48.147Z,1.00
2023-03-15T17:03:16.778Z,0.70
2023-03-15T17:05:46.388Z,0.68
2023-03-15T17:08:18.597Z,0.60
2023-03-15T17:10:45.899Z,0.52
2023-03-15T17:13:15.365Z,0.50
2023-03-15T17:15:42.614Z,0.70
2023-03-15T17:18:19.863Z,0.40
2023-03-15T17:20:48.571Z,0.70
2023-03-15T17:23:16.321Z,0.80
2023-03-15T17:25:43.332Z,0.77
2023-03-15T17:28:10.165Z,0.60
2023-03-15T17:30:37.647Z,0.77
2023-03-15T17:33:05.115Z,0.57
2023-03-15T17:35:35.262Z,0.80
2023-03-15T17:38:06.811Z,0.60
2023-03-15T17:40:35.882Z,0.63
2023-03-15T17:43:04.013Z,0.73
2023-03-15T17:45:33.351Z,0.90
2023-03-15T17:48:01.596Z,0.60
2023-03-15T17:50:31.107Z,0.80
2023-03-15T17:53:01.056Z,0.77
2023-03-15T17:55:30.731Z,0.45
2023-03-15T17:57:57.593Z,0.60
2023-03-15T18:00:25.059Z,0.60
2023-03-15T18:02:56.025Z,0.65
2023-03-15T18:05:26.349Z,0.90
2023-03-15T18:07:59.141Z,0.90
2023-03-15T18:10:33.744Z,0.70
2023-03-15T18:13:00.669Z,0.77
2023-03-15T18:15:27.605Z,0.50
2023-03-15T18:17:54.404Z,0.68
2023-03-15T18:20:23.749Z,0.95
2023-03-15T18:22:50.757Z,0.90
2023-03-15T18:25:19.635Z,0.90
2023-03-15T18:27:47.676Z,0.90
2023-03-15T18:30:20.759Z,0.90
2023-03-15T18:32:48.363Z,1.02
2023-03-15T18:35:24.067Z,2.00
2023-03-15T18:37:50.947Z,2.10
2023-03-15T18:40:19.564Z,2.50
2023-03-15T18:42:46.340Z,2.47
2023-03-15T18:45:28.101Z,3.17
2023-03-15T18:47:55.214Z,2.38
2023-03-15T18:50:22.755Z,2.13
2023-03-15T18:52:49.561Z,2.25
2023-03-15T18:55:18.418Z,1.52
2023-03-15T18:57:46.228Z,1.20
2023-03-15T19:00:16.971Z,1.40
2023-03-15T19:02:47.150Z,1.05
2023-03-15T19:05:14.626Z,1.08
2023-03-15T19:07:41.824Z,0.80
2023-03-15T19:10:11.647Z,0.70
2023-03-15T19:12:39.782Z,0.90
2023-03-15T19:15:10.561Z,1.00
2023-03-15T19:17:38.837Z,1.33
2023-03-15T19:20:07.888Z,0.75
2023-03-15T19:22:47.138Z,0.73
2023-03-15T19:25:14.200Z,1.00
2023-03-15T19:27:42.061Z,0.70
2023-03-15T19:30:12.437Z,1.10
2023-03-15T19:32:40.506Z,1.00
2023-03-15T19:35:07.942Z,0.90
2023-03-15T19:37:35.629Z,0.80
2023-03-15T19:40:03.268Z,0.77
2023-03-15T19:42:31.228Z,0.98
2023-03-15T19:44:57.996Z,1.10
2023-03-15T19:47:24.833Z,0.80
2023-03-15T19:49:51.949Z,0.80
2023-03-15T19:52:18.846Z,0.80
2023-03-15T19:54:47.572Z,0.90
2023-03-15T19:57:14.386Z,0.60
2023-03-15T19:59:47.431Z,0.90
2023-03-15T20:02:14.461Z,0.70
2023-03-15T20:04:41.558Z,0.85
2023-03-15T20:07:11.039Z,0.73
2023-03-15T20:09:39.336Z,0.80
2023-03-15T20:12:07.724Z,0.80
2023-03-15T20:14:34.745Z,0.80
2023-03-15T20:17:02.071Z,0.82
2023-03-15T20:19:29.675Z,0.93
2023-03-15T20:21:57.835Z,1.02
2023-03-15T20:24:25.220Z,0.98
2023-03-15T20:26:52.217Z,0.73
2023-03-15T20:29:19.429Z,0.60
2023-03-15T20:31:46.297Z,0.90
2023-03-15T20:34:13.295Z,0.65
2023-03-15T20:36:40.273Z,0.80
2023-03-15T20:39:07.303Z,0.60
2023-03-15T20:41:34.172Z,0.65
2023-03-15T20:44:01.661Z,0.90
2023-03-15T20:46:29.568Z,0.95
2023-03-15T20:48:56.469Z,1.05
2023-03-15T20:51:23.269Z,1.00
2023-03-15T20:53:50.985Z,1.00
2023-03-15T20:56:19.170Z,1.45
2023-03-15T20:58:47.484Z,0.98
2023-03-15T21:01:16.598Z,0.93
2023-03-15T21:03:44.727Z,1.13
2023-03-15T21:06:12.169Z,1.10
2023-03-15T21:08:39.002Z,1.20
2023-03-15T21:11:06.713Z,1.08
2023-03-15T21:13:35.223Z,1.20
2023-03-15T21:16:04.407Z,1.20
2023-03-15T21:18:32.968Z,0.98
2023-03-15T21:21:02.741Z,1.23
2023-03-15T21:23:33.704Z,1.00
2023-03-15T21:26:05.161Z,1.10
2023-03-15T21:28:32.603Z,1.10
2023-03-15T21:30:59.859Z,1.00
2023-03-15T21:33:29.127Z,0.93
2023-03-15T21:35:57.098Z,1.00
2023-03-15T21:38:24.054Z,1.17
2023-03-15T21:41:00.213Z,0.88
2023-03-15T21:43:29.035Z,0.90
2023-03-15T21:46:00.087Z,1.13
2023-03-15T21:48:27.228Z,1.00
2023-03-15T21:50:54.185Z,1.13
2023-03-15T21:53:22.010Z,1.30
2023-03-15T21:55:48.792Z,1.00
2023-03-15T21:58:15.966Z,1.30
2023-03-15T22:00:43.104Z,1.17
2023-03-15T22:03:10.004Z,1.10
2023-03-15T22:05:36.826Z,1.23
2023-03-15T22:08:03.710Z,1.00
2023-03-15T22:10:30.593Z,1.15
2023-03-15T22:12:57.401Z,0.80
2023-03-15T22:15:24.204Z,1.10
2023-03-15T22:17:51.029Z,0.85
2023-03-15T22:20:18.399Z,1.00
2023-03-15T22:22:47.023Z,0.82
2023-03-15T22:25:14.900Z,1.00
2023-03-15T22:27:41.882Z,1.08
2023-03-15T22:30:10.018Z,0.80
2023-03-15T22:32:36.885Z,0.70
2023-03-15T22:35:04.085Z,0.95
2023-03-15T22:37:33.962Z,0.68
2023-03-15T22:40:00.892Z,0.80
2023-03-15T22:42:27.739Z,0.85
2023-03-15T22:44:54.520Z,0.80
2023-03-15T22:47:21.323Z,0.70
2023-03-15T22:49:48.694Z,0.85
2023-03-15T22:52:15.535Z,0.80
2023-03-15T22:54:43.498Z,1.00
2023-03-15T22:57:11.405Z,0.90
2023-03-15T22:59:39.307Z,0.95
2023-03-15T23:02:07.035Z,0.98
2023-03-15T23:04:34.084Z,1.10
2023-03-15T23:07:01.746Z,1.00
2023-03-15T23:09:28.624Z,1.40
2023-03-15T23:11:55.532Z,1.55
2023-03-15T23:14:22.462Z,1.58
2023-03-15T23:16:49.432Z,2.28
2023-03-15T23:19:16.292Z,2.10
2023-03-15T23:21:43.055Z,2.53
2023-03-15T23:24:09.966Z,2.90
2023-03-15T23:26:37.198Z,2.58
2023-03-15T23:29:10.816Z,2.20
2023-03-15T23:31:41.875Z,2.22
2023-03-15T23:34:09.057Z,2.03
2023-03-15T23:36:36.549Z,2.38
2023-03-15T23:39:04.399Z,2.40
2023-03-15T23:41:31.190Z,2.50
2023-03-15T23:43:58.074Z,2.47
2023-03-15T23:46:25.400Z,2.67
2023-03-15T23:48:53.146Z,2.67
2023-03-15T23:51:22.099Z,2.83
2023-03-15T23:53:48.966Z,3.00
2023-03-15T23:56:15.716Z,3.10
2023-03-15T23:58:42.452Z,2.83
